Airfield :
LOGIN :

Register | Disclaimer

   EN    FR    IT 

 










Legend :    VFR   Marginal VFR   IFR   Intensive IFR   Very Intensive IFR
Visi :
Ceiling :
>= 8 km
>= 3000ft
5 to 8 km
1000 to 3000 ft
1500m to 5 km
500 to 1000 ft
800 to 1500m
200 to 500 ft
< 800m
< 200 ft
Symbols :   Thunderstorms  Fog  Heavy snow  Heavy precipitations  Wind > 20 kt
SIGMETs :     Misc.  Thunderstorms  Icing  Turbulence  Mountain Waves  Volcanic Ashes






- Airport Elevation : 587 ft
- IATA code : XCR


LFOK - Chalons Vatry

CURRENT METAR :
  • 240530Z AUTO 28007KT 9999 BKN016 BKN052 OVC072 04/03 Q1014 TEMPO BKN008 BKN012

EXPIRED METARs :
  • 240500Z AUTO 28007KT 9999 BKN016 BKN052 OVC074 05/04 Q1014 TEMPO BKN008 BKN012
  • 240430Z AUTO 27004KT 9000 SCT021 SCT034 BKN045 05/04 Q1014 TEMPO BKN008 BKN012
  • 240400Z AUTO 29006KT 9999 FEW014 BKN033 BKN039 05/04 Q1014 TEMPO BKN008 BKN012
  • 240330Z AUTO 28007KT 9999 BKN013 BKN018 OVC026 05/04 Q1014 TEMPO BKN008 BKN012
  • 240300Z AUTO 29007KT 9999 OVC020 05/03 Q1015 TEMPO BKN008 BKN012
  • 240230Z AUTO 26005KT 9999 SCT017 BKN025 BKN039 04/02 Q1015 TEMPO BKN008 BKN012
  • 240130Z AUTO 29006KT 9999 BKN047 OVC054 04/02 Q1015 TEMPO BKN008 BKN012
  • 240100Z AUTO 28006KT 9999 FEW038 BKN056 04/01 Q1015 NOSIG

TAF TAF LFOK
Valid from the 24 at 06:00 until the 25 at 06:00 UTC


240500Z 2406/2506 32006KT 9999 BKN035
TEMPO 2406/2420 4000 SHRA BKN014 BKN020TCU
PROB40 2412/2416 35020G30KT 2000 SHRAGS BKN012 BKN016CB
PROB30
TEMPO 2423/2506 2000 BR



MET'MAP, your aeronautical weather chart ! - Copyright ORBIFLY December 2007 - Disclaimer

ORBIFLY MET'MAP TEAM :

Programming & Development : Alexandra Zaïnal
Original concept : Baudouin d'Aumeries
Technical & hardware support : Manuel Goepfert
Assistance : Marc-Olivier Méhu




SOURCES & CREDITS :

   NOAA